createdAt,value
2018-05-12T00:00:08.607Z,15.11
2018-05-12T00:01:08.799Z,15.11
2018-05-12T00:02:08.763Z,15.11
2018-05-12T00:03:08.831Z,15.04
2018-05-12T00:04:08.867Z,15.02
2018-05-12T00:05:08.935Z,15.02
2018-05-12T00:06:09.019Z,14.96
2018-05-12T00:07:09.081Z,14.92
2018-05-12T00:08:09.152Z,14.77
2018-05-12T00:09:09.213Z,14.88
2018-05-12T00:10:09.429Z,14.69
2018-05-12T00:11:09.491Z,14.70
2018-05-12T00:12:10.011Z,14.70
2018-05-12T00:13:09.508Z,14.68
2018-05-12T00:14:09.513Z,14.58
2018-05-12T00:15:09.592Z,14.60
2018-05-12T00:16:09.656Z,14.51
2018-05-12T00:17:09.728Z,14.54
2018-05-12T00:18:09.784Z,14.43
2018-05-12T00:19:09.851Z,14.40
2018-05-12T00:20:09.904Z,14.44
2018-05-12T00:21:09.984Z,14.37
2018-05-12T00:22:10.044Z,14.32
2018-05-12T00:23:10.096Z,14.37
2018-05-12T00:24:10.160Z,14.30
2018-05-12T00:25:10.240Z,14.32
2018-05-12T00:26:10.480Z,14.25
2018-05-12T00:27:10.356Z,14.26
2018-05-12T00:28:10.436Z,14.20
2018-05-12T00:29:10.492Z,14.29
2018-05-12T00:30:10.557Z,14.18
2018-05-12T00:31:10.924Z,14.20
2018-05-12T00:32:10.700Z,14.23
2018-05-12T00:33:10.748Z,14.15
2018-05-12T00:34:10.828Z,14.14
2018-05-12T00:35:10.885Z,14.05
2018-05-12T00:36:10.969Z,14.10
2018-05-12T00:37:11.073Z,14.00
2018-05-12T00:38:11.084Z,14.04
2018-05-12T00:39:11.159Z,14.00
2018-05-12T00:40:11.208Z,14.07
2018-05-12T00:41:11.284Z,13.85
2018-05-12T00:42:11.505Z,13.86
2018-05-12T00:43:11.405Z,13.86
2018-05-12T00:44:11.477Z,13.81
2018-05-12T00:45:11.532Z,13.79
2018-05-12T00:46:11.640Z,13.77
2018-05-12T00:47:11.702Z,13.74
2018-05-12T00:48:11.753Z,13.71
2018-05-12T00:49:11.789Z,13.68
2018-05-12T00:50:11.857Z,13.81
2018-05-12T00:51:11.929Z,13.75
2018-05-12T00:52:11.989Z,13.72
2018-05-12T00:53:12.053Z,13.72
2018-05-12T00:54:12.117Z,13.70
2018-05-12T00:55:12.181Z,13.62
2018-05-12T00:56:12.241Z,13.62
2018-05-12T00:57:12.301Z,13.57
2018-05-12T00:58:12.486Z,13.62
2018-05-12T00:59:12.438Z,13.59
2018-05-12T01:00:12.505Z,13.53
2018-05-12T01:01:12.569Z,13.52
2018-05-12T01:02:12.633Z,13.46
2018-05-12T01:03:12.710Z,13.49
2018-05-12T01:04:12.770Z,13.39
2018-05-12T01:05:12.830Z,13.49
2018-05-12T01:06:12.898Z,13.39
2018-05-12T01:07:12.949Z,13.46
2018-05-12T01:08:13.030Z,13.38
2018-05-12T01:09:13.090Z,13.27
2018-05-12T01:10:13.151Z,13.28
2018-05-12T01:11:13.217Z,13.35
2018-05-12T01:12:13.282Z,13.30
2018-05-12T01:13:13.346Z,13.35
2018-05-12T01:14:13.422Z,13.33
2018-05-12T01:15:13.478Z,13.16
2018-05-12T01:16:13.550Z,13.25
2018-05-12T01:17:13.598Z,13.20
2018-05-12T01:18:13.682Z,13.12
2018-05-12T01:19:13.808Z,13.12
2018-05-12T01:20:13.811Z,13.11
2018-05-12T01:21:13.867Z,13.09
2018-05-12T01:22:13.955Z,13.13
2018-05-12T01:23:13.991Z,13.04
2018-05-12T01:24:14.063Z,13.01
2018-05-12T01:25:14.118Z,13.05
2018-05-12T01:26:14.194Z,13.03
2018-05-12T01:27:14.247Z,12.98
2018-05-12T01:28:14.628Z,13.00
2018-05-12T01:29:14.379Z,13.00
2018-05-12T01:30:14.455Z,12.93
2018-05-12T01:31:14.507Z,12.93
2018-05-12T01:32:14.579Z,12.82
2018-05-12T01:33:14.643Z,12.86
2018-05-12T01:34:14.747Z,12.90
2018-05-12T01:35:14.787Z,12.83
2018-05-12T01:36:14.839Z,12.83
2018-05-12T01:37:14.899Z,12.78
2018-05-12T01:38:14.976Z,12.67
2018-05-12T01:39:15.084Z,12.86
2018-05-12T01:40:15.111Z,12.79
2018-05-12T01:41:15.152Z,12.76
2018-05-12T01:42:15.212Z,12.72
2018-05-12T01:43:15.311Z,12.72
2018-05-12T01:44:15.348Z,12.70
2018-05-12T01:45:15.407Z,12.68
2018-05-12T01:46:15.479Z,12.72
2018-05-12T01:47:15.568Z,12.62
2018-05-12T01:48:15.611Z,12.70
2018-05-12T01:49:15.684Z,12.61
2018-05-12T01:50:15.731Z,12.62
2018-05-12T01:51:15.795Z,12.53
2018-05-12T01:52:15.860Z,12.55
2018-05-12T01:53:15.923Z,12.53
2018-05-12T01:54:16.152Z,12.55
2018-05-12T01:55:16.055Z,12.60
2018-05-12T01:56:16.125Z,12.55
2018-05-12T01:57:16.184Z,12.47
2018-05-12T01:58:16.332Z,12.43
2018-05-12T01:59:16.335Z,12.45
2018-05-12T02:00:16.460Z,12.45
2018-05-12T02:01:16.444Z,12.43
2018-05-12T02:02:16.508Z,12.47
2018-05-12T02:03:16.568Z,12.32
2018-05-12T02:04:16.636Z,12.40
2018-05-12T02:05:16.704Z,12.35
2018-05-12T02:06:16.760Z,12.36
2018-05-12T02:07:16.824Z,12.42
2018-05-12T02:08:16.888Z,12.37
2018-05-12T02:09:16.960Z,12.28
2018-05-12T02:10:17.026Z,12.36
2018-05-12T02:11:17.084Z,12.32
2018-05-12T02:12:17.145Z,12.32
2018-05-12T02:13:17.209Z,12.31
2018-05-12T02:14:17.288Z,12.31
2018-05-12T02:15:17.343Z,12.20
2018-05-12T02:16:17.404Z,12.21
2018-05-12T02:17:17.468Z,12.22
2018-05-12T02:18:17.535Z,12.18
2018-05-12T02:19:17.604Z,12.22
2018-05-12T02:20:17.664Z,12.17
2018-05-12T02:21:17.725Z,12.13
2018-05-12T02:22:17.789Z,12.15
2018-05-12T02:23:17.853Z,12.15
2018-05-12T02:24:17.924Z,12.13
2018-05-12T02:25:17.992Z,12.17
2018-05-12T02:26:18.045Z,12.13
2018-05-12T02:27:18.150Z,12.17
2018-05-12T02:28:18.192Z,12.02
2018-05-12T02:29:18.253Z,12.06
2018-05-12T02:30:18.385Z,11.99
2018-05-12T02:31:18.365Z,12.06
2018-05-12T02:32:18.429Z,12.06
2018-05-12T02:33:18.501Z,12.09
2018-05-12T02:34:18.565Z,12.07
2018-05-12T02:35:18.629Z,12.03
2018-05-12T02:36:18.688Z,12.03
2018-05-12T02:37:18.750Z,11.99
2018-05-12T02:38:18.814Z,12.03
2018-05-12T02:39:18.889Z,11.99
2018-05-12T02:40:18.950Z,11.99
2018-05-12T02:41:19.011Z,12.06
2018-05-12T02:42:19.108Z,12.02
2018-05-12T02:43:19.137Z,11.99
2018-05-12T02:44:19.218Z,12.00
2018-05-12T02:45:19.265Z,12.00
2018-05-12T02:46:19.330Z,11.99
2018-05-12T02:47:19.395Z,12.02
2018-05-12T02:48:19.454Z,11.99
2018-05-12T02:49:19.527Z,11.99
2018-05-12T02:50:19.590Z,12.04
2018-05-12T02:51:19.650Z,12.02
2018-05-12T02:52:19.710Z,11.97
2018-05-12T02:53:19.778Z,11.97
2018-05-12T02:54:19.846Z,11.94
2018-05-12T02:55:19.914Z,11.95
2018-05-12T02:56:19.966Z,11.91
2018-05-12T02:57:20.035Z,12.02
2018-05-12T02:58:20.099Z,11.99
2018-05-12T02:59:20.183Z,11.97
2018-05-12T03:00:20.222Z,11.95
2018-05-12T03:01:20.303Z,12.03
2018-05-12T03:02:20.358Z,11.91
2018-05-12T03:03:20.419Z,11.91
2018-05-12T03:04:20.486Z,11.91
2018-05-12T03:05:20.551Z,11.97
2018-05-12T03:06:20.613Z,11.94
2018-05-12T03:07:20.675Z,11.91
2018-05-12T03:08:20.735Z,11.99
2018-05-12T03:09:20.807Z,11.97
2018-05-12T03:10:20.871Z,11.91
2018-05-12T03:11:20.947Z,11.97
2018-05-12T03:12:20.990Z,11.97
2018-05-12T03:13:21.055Z,12.00
2018-05-12T03:14:21.537Z,11.99
2018-05-12T03:15:21.183Z,12.02
2018-05-12T03:16:21.247Z,12.06
2018-05-12T03:17:21.311Z,12.00
2018-05-12T03:18:21.375Z,12.06
2018-05-12T03:19:21.447Z,12.09
2018-05-12T03:20:21.512Z,12.03
2018-05-12T03:21:21.567Z,12.13
2018-05-12T03:22:21.631Z,12.18
2018-05-12T03:23:21.695Z,12.13
2018-05-12T03:24:21.771Z,12.17
2018-05-12T03:25:21.831Z,12.13
2018-05-12T03:26:21.891Z,12.18
2018-05-12T03:27:21.951Z,12.15
2018-05-12T03:28:22.017Z,12.24
2018-05-12T03:29:22.237Z,12.21
2018-05-12T03:30:22.144Z,12.24
2018-05-12T03:31:22.208Z,12.20
2018-05-12T03:32:22.272Z,12.22
2018-05-12T03:33:22.336Z,12.32
2018-05-12T03:34:22.408Z,12.25
2018-05-12T03:35:22.472Z,12.28
2018-05-12T03:36:22.532Z,12.25
2018-05-12T03:37:22.595Z,12.22
2018-05-12T03:38:22.656Z,12.29
2018-05-12T03:39:22.908Z,12.29
2018-05-12T03:40:22.788Z,12.27
2018-05-12T03:41:22.848Z,12.27
2018-05-12T03:42:22.924Z,12.24
2018-05-12T03:43:22.976Z,12.24
2018-05-12T03:44:23.040Z,12.21
2018-05-12T03:45:23.212Z,12.20
2018-05-12T03:46:23.168Z,12.20
2018-05-12T03:47:23.237Z,12.18
2018-05-12T03:48:23.296Z,12.24
2018-05-12T03:49:23.360Z,12.21
2018-05-12T03:50:23.434Z,12.18
2018-05-12T03:51:23.496Z,12.20
2018-05-12T03:52:23.552Z,12.17
2018-05-12T03:53:23.616Z,12.21
2018-05-12T03:54:23.680Z,12.20
2018-05-12T03:55:23.753Z,12.17
2018-05-12T03:56:23.813Z,12.10
2018-05-12T03:57:23.876Z,12.17
2018-05-12T03:58:23.936Z,12.17
2018-05-12T03:59:24.001Z,12.04
2018-05-12T04:00:24.068Z,12.13
2018-05-12T04:01:24.133Z,12.00
2018-05-12T04:02:24.193Z,12.02
2018-05-12T04:03:24.265Z,12.18
2018-05-12T04:04:24.321Z,12.10
2018-05-12T04:05:24.388Z,12.10
2018-05-12T04:06:24.453Z,12.13
2018-05-12T04:07:24.513Z,12.13
2018-05-12T04:08:24.576Z,12.15
2018-05-12T04:09:24.641Z,12.17
2018-05-12T04:10:24.709Z,12.24
2018-05-12T04:11:24.779Z,12.21
2018-05-12T04:12:24.833Z,12.13
2018-05-12T04:13:24.904Z,12.20
2018-05-12T04:14:24.964Z,12.31
2018-05-12T04:15:25.029Z,12.28
2018-05-12T04:16:25.093Z,12.36
2018-05-12T04:17:25.153Z,12.29
2018-05-12T04:18:25.217Z,12.42
2018-05-12T04:19:25.281Z,12.42
2018-05-12T04:20:25.494Z,12.42
2018-05-12T04:21:25.409Z,12.39
2018-05-12T04:22:25.474Z,12.53
2018-05-12T04:23:25.537Z,12.49
2018-05-12T04:24:25.602Z,12.60
2018-05-12T04:25:25.675Z,12.60
2018-05-12T04:26:25.733Z,12.60
2018-05-12T04:27:25.793Z,12.68
2018-05-12T04:28:25.862Z,12.65
2018-05-12T04:29:25.922Z,12.70
2018-05-12T04:30:25.990Z,12.78
2018-05-12T04:31:26.058Z,12.75
2018-05-12T04:32:26.114Z,12.90
2018-05-12T04:33:26.178Z,12.85
2018-05-12T04:34:26.242Z,12.87
2018-05-12T04:35:26.490Z,12.91
2018-05-12T04:36:26.370Z,12.97
2018-05-12T04:37:26.434Z,13.05
2018-05-12T04:38:26.498Z,13.08
2018-05-12T04:39:26.566Z,13.12
2018-05-12T04:40:26.874Z,13.13
2018-05-12T04:41:26.698Z,13.16
2018-05-12T04:42:26.766Z,13.23
2018-05-12T04:43:26.822Z,13.28
2018-05-12T04:44:26.882Z,13.33
2018-05-12T04:45:26.954Z,13.30
2018-05-12T04:46:27.018Z,13.39
2018-05-12T04:47:27.079Z,13.42
2018-05-12T04:48:27.143Z,13.46
2018-05-12T04:49:27.210Z,13.50
2018-05-12T04:50:27.579Z,13.59
2018-05-12T04:51:27.334Z,13.60
2018-05-12T04:52:27.398Z,13.63
2018-05-12T04:53:27.462Z,13.75
2018-05-12T04:54:27.527Z,13.79
2018-05-12T04:55:27.599Z,13.68
2018-05-12T04:56:27.663Z,13.83
2018-05-12T04:57:27.723Z,13.95
2018-05-12T04:58:27.787Z,13.90
2018-05-12T04:59:27.851Z,14.03
2018-05-12T05:00:27.923Z,14.04
2018-05-12T05:01:27.987Z,14.08
2018-05-12T05:02:28.044Z,14.10
2018-05-12T05:03:28.111Z,14.28
2018-05-12T05:04:28.176Z,14.14
2018-05-12T05:05:28.251Z,14.15
2018-05-12T05:06:28.327Z,14.20
2018-05-12T05:07:28.368Z,14.29
2018-05-12T05:08:28.432Z,14.26
2018-05-12T05:09:28.496Z,14.29
2018-05-12T05:10:28.564Z,14.37
2018-05-12T05:11:28.660Z,14.30
2018-05-12T05:12:28.700Z,14.41
2018-05-12T05:13:28.756Z,14.40
2018-05-12T05:14:28.820Z,14.47
2018-05-12T05:15:28.890Z,14.51
2018-05-12T05:16:28.956Z,14.50
2018-05-12T05:17:29.024Z,14.50
2018-05-12T05:18:29.080Z,14.55
2018-05-12T05:19:29.144Z,14.58
2018-05-12T05:20:29.220Z,14.59
2018-05-12T05:21:29.288Z,14.58
2018-05-12T05:22:29.341Z,14.58
2018-05-12T05:23:29.404Z,14.65
2018-05-12T05:24:29.660Z,14.58
2018-05-12T05:25:29.532Z,14.65
2018-05-12T05:26:29.605Z,14.62
2018-05-12T05:27:29.672Z,14.65
2018-05-12T05:28:29.729Z,14.66
2018-05-12T05:29:29.797Z,14.63
2018-05-12T05:30:29.856Z,14.63
2018-05-12T05:31:29.934Z,14.54
2018-05-12T05:32:29.996Z,14.58
2018-05-12T05:33:30.053Z,14.58
2018-05-12T05:34:30.121Z,14.63
2018-05-12T05:35:30.185Z,14.65
2018-05-12T05:36:30.357Z,14.58
2018-05-12T05:37:30.314Z,14.62
2018-05-12T05:38:30.377Z,14.58
2018-05-12T05:39:30.457Z,14.69
2018-05-12T05:40:30.510Z,14.68
2018-05-12T05:41:30.577Z,14.65
2018-05-12T05:42:30.642Z,14.84
2018-05-12T05:43:30.783Z,14.73
2018-05-12T05:44:30.767Z,14.88
2018-05-12T05:45:30.833Z,14.89
2018-05-12T05:46:30.901Z,14.89
2018-05-12T05:47:30.969Z,14.86
2018-05-12T05:48:31.041Z,15.02
2018-05-12T05:49:31.093Z,14.99
2018-05-12T05:50:31.158Z,14.94
2018-05-12T05:51:31.378Z,15.09
2018-05-12T05:52:31.290Z,15.14
2018-05-12T05:53:31.349Z,15.29
2018-05-12T05:54:31.417Z,15.29
2018-05-12T05:55:31.482Z,15.43
2018-05-12T05:56:31.557Z,15.44
2018-05-12T05:57:31.617Z,15.57
2018-05-12T05:58:31.680Z,15.62
2018-05-12T05:59:31.775Z,15.75
2018-05-12T06:00:31.810Z,15.82
2018-05-12T06:01:31.878Z,15.90
2018-05-12T06:02:31.946Z,15.97
2018-05-12T06:03:32.003Z,16.09
2018-05-12T06:04:32.074Z,16.24
2018-05-12T06:05:32.139Z,16.32
2018-05-12T06:06:32.222Z,16.38
2018-05-12T06:07:32.266Z,16.47
2018-05-12T06:08:32.338Z,16.56
2018-05-12T06:09:32.395Z,16.61
2018-05-12T06:10:32.466Z,16.64
2018-05-12T06:11:32.594Z,16.66
2018-05-12T06:12:32.599Z,16.79
2018-05-12T06:13:32.662Z,16.78
2018-05-12T06:14:32.727Z,16.87
2018-05-12T06:15:32.790Z,16.89
2018-05-12T06:16:32.910Z,17.01
2018-05-12T06:17:32.935Z,16.93
2018-05-12T06:18:32.986Z,17.01
2018-05-12T06:19:33.055Z,17.11
2018-05-12T06:20:33.123Z,17.16
2018-05-12T06:21:33.179Z,17.08
2018-05-12T06:22:33.263Z,17.22
2018-05-12T06:23:33.315Z,17.24
2018-05-12T06:24:33.565Z,17.31
2018-05-12T06:25:33.448Z,17.31
2018-05-12T06:26:33.527Z,17.41
2018-05-12T06:27:33.593Z,17.45
2018-05-12T06:28:33.695Z,17.41
2018-05-12T06:29:33.731Z,17.64
2018-05-12T06:30:33.831Z,17.92
2018-05-12T06:31:33.843Z,18.49
2018-05-12T06:32:33.931Z,19.15
2018-05-12T06:33:34.070Z,20.02
2018-05-12T06:34:34.052Z,20.74
2018-05-12T06:35:34.191Z,21.27
2018-05-12T06:36:34.180Z,21.99
2018-05-12T06:37:34.276Z,22.60
2018-05-12T06:38:34.316Z,23.15
2018-05-12T06:39:34.388Z,23.24
2018-05-12T06:40:34.531Z,23.80
2018-05-12T06:41:34.535Z,24.24
2018-05-12T06:42:34.608Z,24.33
2018-05-12T06:43:34.764Z,24.60
2018-05-12T06:44:34.744Z,24.99
2018-05-12T06:45:34.811Z,25.17
2018-05-12T06:46:34.884Z,25.40
2018-05-12T06:47:34.972Z,25.55
2018-05-12T06:48:35.048Z,25.40
2018-05-12T06:49:35.104Z,25.65
2018-05-12T06:50:35.184Z,26.06
2018-05-12T06:51:35.253Z,26.21
2018-05-12T06:52:35.636Z,26.34
2018-05-12T06:53:35.400Z,26.66
2018-05-12T06:54:35.476Z,26.40
2018-05-12T06:55:35.553Z,26.28
2018-05-12T06:56:35.624Z,26.28
2018-05-12T06:57:37.544Z,26.16
2018-05-12T06:58:36.543Z,26.44
2018-05-12T06:59:37.528Z,26.81
2018-05-12T07:00:37.545Z,26.62
2018-05-12T07:01:36.017Z,26.95
2018-05-12T07:02:36.376Z,26.99
2018-05-12T07:03:36.204Z,27.21
2018-05-12T07:04:36.256Z,27.29
2018-05-12T07:05:36.306Z,27.54
2018-05-12T07:06:36.861Z,27.95
2018-05-12T07:07:36.461Z,28.51
2018-05-12T07:08:36.556Z,28.78
2018-05-12T07:09:36.657Z,29.07
2018-05-12T07:10:36.905Z,28.64
2018-05-12T07:11:36.765Z,28.81
2018-05-12T07:12:37.726Z,28.79
2018-05-12T07:13:36.941Z,28.79
2018-05-12T07:14:37.069Z,28.66
2018-05-12T07:15:37.093Z,28.63
2018-05-12T07:16:37.161Z,28.76
2018-05-12T07:17:37.293Z,28.86
2018-05-12T07:18:37.497Z,29.12
2018-05-12T07:19:37.670Z,29.19
2018-05-12T07:20:37.474Z,29.29
2018-05-12T07:21:37.554Z,29.38
2018-05-12T07:22:37.634Z,29.41
2018-05-12T07:23:37.718Z,29.19
2018-05-12T07:24:37.793Z,28.75
2018-05-12T07:25:37.869Z,28.91
2018-05-12T07:26:37.950Z,29.41
2018-05-12T07:27:38.302Z,29.41
2018-05-12T07:28:38.350Z,29.65
2018-05-12T07:29:38.221Z,29.49
2018-05-12T07:30:38.262Z,29.49
2018-05-12T07:31:38.342Z,29.76
2018-05-12T07:32:38.422Z,29.68
2018-05-12T07:33:38.506Z,29.54
2018-05-12T07:34:38.586Z,29.49
2018-05-12T07:35:38.661Z,29.69
2018-05-12T07:36:38.742Z,30.03
2018-05-12T07:37:38.818Z,30.27
2018-05-12T07:38:38.906Z,30.63
2018-05-12T07:39:38.986Z,30.88
2018-05-12T07:40:39.070Z,30.90
2018-05-12T07:41:39.138Z,31.42
2018-05-12T07:42:39.215Z,31.09
2018-05-12T07:43:39.323Z,30.25
2018-05-12T07:44:39.378Z,30.19
2018-05-12T07:45:39.528Z,30.00
2018-05-12T07:46:39.547Z,29.88
2018-05-12T07:47:39.614Z,30.23
2018-05-12T07:48:39.698Z,30.43
2018-05-12T07:49:39.779Z,30.55
2018-05-12T07:50:39.850Z,31.10
2018-05-12T07:51:40.006Z,31.40
2018-05-12T07:52:40.011Z,31.43
2018-05-12T07:53:40.118Z,31.80
2018-05-12T07:54:40.171Z,31.94
2018-05-12T07:55:40.254Z,32.00
2018-05-12T07:56:40.343Z,32.09
2018-05-12T07:57:40.423Z,32.34
2018-05-12T07:58:40.500Z,32.36
2018-05-12T07:59:40.578Z,32.22
2018-05-12T08:00:40.654Z,32.40
2018-05-12T08:01:40.771Z,32.41
2018-05-12T08:02:40.831Z,32.60
2018-05-12T08:03:40.903Z,32.48
2018-05-12T08:04:40.983Z,32.26
2018-05-12T08:05:41.070Z,32.36
2018-05-12T08:06:41.139Z,32.04
2018-05-12T08:07:41.219Z,32.26
2018-05-12T08:08:41.328Z,32.36
2018-05-12T08:09:41.383Z,32.51
2018-05-12T08:10:41.463Z,32.36
2018-05-12T08:11:41.543Z,32.53
2018-05-12T08:12:41.627Z,32.36
2018-05-12T08:13:41.711Z,32.65
2018-05-12T08:14:41.855Z,32.70
2018-05-12T08:15:46.507Z,32.34
2018-05-12T08:16:41.947Z,32.64
2018-05-12T08:17:42.032Z,32.70
2018-05-12T08:18:42.267Z,32.92
2018-05-12T08:19:42.192Z,33.05
2018-05-12T08:20:42.275Z,33.08
2018-05-12T08:21:42.356Z,32.56
2018-05-12T08:22:42.459Z,32.52
2018-05-12T08:23:42.528Z,32.43
2018-05-12T08:24:42.603Z,32.56
2018-05-12T08:25:42.680Z,32.19
2018-05-12T08:26:42.772Z,32.33
2018-05-12T08:27:42.844Z,32.40
2018-05-12T08:28:42.940Z,32.48
2018-05-12T08:29:43.012Z,32.60
2018-05-12T08:30:43.084Z,32.78
2018-05-12T08:31:43.172Z,32.89
2018-05-12T08:32:43.250Z,32.95
2018-05-12T08:33:43.372Z,32.97
2018-05-12T08:34:43.537Z,33.15
2018-05-12T08:35:43.492Z,33.32
2018-05-12T08:36:43.572Z,33.37
2018-05-12T08:37:43.653Z,33.61
2018-05-12T08:38:43.732Z,33.58
2018-05-12T08:39:43.820Z,33.34
2018-05-12T08:40:43.913Z,32.85
2018-05-12T08:41:43.980Z,32.87
2018-05-12T08:42:44.061Z,32.46
2018-05-12T08:43:44.145Z,32.46
2018-05-12T08:44:44.324Z,32.55
2018-05-12T08:45:44.300Z,32.70
2018-05-12T08:46:44.377Z,32.70
2018-05-12T08:47:44.460Z,32.45
2018-05-12T08:48:44.541Z,32.03
2018-05-12T08:49:44.625Z,32.18
2018-05-12T08:50:44.713Z,32.30
2018-05-12T08:51:44.781Z,32.56
2018-05-12T08:52:44.861Z,32.51
2018-05-12T08:53:44.941Z,31.73
2018-05-12T08:54:45.053Z,31.22
2018-05-12T08:55:45.109Z,31.06
2018-05-12T08:56:45.181Z,31.07
2018-05-12T08:57:45.263Z,31.28
2018-05-12T08:58:45.341Z,31.37
2018-05-12T08:59:45.433Z,31.17
2018-05-12T09:00:45.505Z,31.22
2018-05-12T09:01:45.579Z,31.31
2018-05-12T09:02:45.657Z,31.49
2018-05-12T09:03:45.776Z,31.66
2018-05-12T09:04:45.821Z,31.92
2018-05-12T09:05:45.901Z,31.66
2018-05-12T09:06:45.973Z,31.37
2018-05-12T09:07:46.059Z,31.54
2018-05-12T09:08:46.133Z,31.40
2018-05-12T09:09:46.373Z,31.47
2018-05-12T09:10:46.290Z,31.39
2018-05-12T09:11:46.374Z,31.43
2018-05-12T09:12:46.446Z,31.36
2018-05-12T09:13:46.526Z,30.92
2018-05-12T09:14:46.610Z,31.18
2018-05-12T09:15:46.690Z,31.37
2018-05-12T09:16:46.761Z,31.64
2018-05-12T09:17:47.114Z,31.43
2018-05-12T09:18:46.918Z,31.28
2018-05-12T09:19:47.058Z,30.80
2018-05-12T09:20:47.082Z,30.90
2018-05-12T09:21:47.158Z,31.05
2018-05-12T09:22:47.234Z,31.21
2018-05-12T09:23:47.314Z,31.22
2018-05-12T09:24:47.395Z,31.22
2018-05-12T09:25:47.474Z,31.49
2018-05-12T09:26:47.542Z,31.90
2018-05-12T09:27:47.660Z,32.09
2018-05-12T09:28:47.698Z,32.18
2018-05-12T09:29:47.782Z,31.99
2018-05-12T09:30:47.918Z,31.96
2018-05-12T09:31:47.939Z,31.87
2018-05-12T09:32:48.011Z,31.74
2018-05-12T09:33:48.091Z,31.74
2018-05-12T09:34:48.187Z,31.81
2018-05-12T09:35:48.243Z,31.56
2018-05-12T09:36:48.322Z,31.18
2018-05-12T09:37:48.431Z,30.97
2018-05-12T09:38:48.483Z,31.03
2018-05-12T09:39:48.563Z,30.91
2018-05-12T09:40:48.639Z,30.94
2018-05-12T09:41:48.707Z,30.75
2018-05-12T09:42:48.791Z,30.62
2018-05-12T09:43:48.863Z,30.54
2018-05-12T09:44:49.059Z,30.47
2018-05-12T09:45:49.031Z,30.47
2018-05-12T09:46:49.097Z,30.59
2018-05-12T09:47:49.170Z,30.78
2018-05-12T09:48:49.249Z,30.97
2018-05-12T09:49:49.347Z,30.84
2018-05-12T09:50:49.405Z,30.87
2018-05-12T09:51:49.479Z,30.91
2018-05-12T09:52:49.558Z,30.19
2018-05-12T09:53:49.634Z,30.05
2018-05-12T09:54:49.717Z,29.75
2018-05-12T09:55:49.791Z,29.78
2018-05-12T09:56:49.859Z,29.41
2018-05-12T09:57:49.939Z,29.29
2018-05-12T09:58:50.012Z,29.05
2018-05-12T09:59:50.223Z,29.13
2018-05-12T10:00:50.187Z,29.20
2018-05-12T10:01:50.240Z,29.42
2018-05-12T10:02:50.315Z,29.34
2018-05-12T10:03:50.396Z,29.76
2018-05-12T10:04:50.472Z,29.73
2018-05-12T10:05:50.596Z,29.66
2018-05-12T10:06:50.623Z,29.76
2018-05-12T10:07:50.697Z,30.12
2018-05-12T10:08:50.768Z,30.21
2018-05-12T10:09:50.848Z,30.54
2018-05-12T10:10:50.928Z,30.61
2018-05-12T10:11:51.010Z,30.85
2018-05-12T10:12:51.121Z,30.96
2018-05-12T10:13:51.164Z,31.05
2018-05-12T10:14:51.251Z,30.87
2018-05-12T10:15:51.296Z,30.63
2018-05-12T10:16:51.368Z,30.66
2018-05-12T10:17:51.444Z,30.50
2018-05-12T10:18:51.520Z,30.51
2018-05-12T10:19:51.606Z,30.40
2018-05-12T10:20:52.032Z,30.53
2018-05-12T10:21:51.752Z,30.10
2018-05-12T10:22:51.828Z,30.44
2018-05-12T10:23:51.908Z,30.39
2018-05-12T10:24:51.993Z,30.39
2018-05-12T10:25:52.052Z,30.50
2018-05-12T10:26:52.125Z,30.13
2018-05-12T10:27:52.201Z,30.30
2018-05-12T10:28:52.269Z,30.21
2018-05-12T10:29:52.344Z,29.93
2018-05-12T10:30:52.585Z,30.05
2018-05-12T10:31:52.497Z,30.06
2018-05-12T10:32:52.561Z,29.69
2018-05-12T10:33:52.641Z,29.73
2018-05-12T10:34:52.713Z,29.87
2018-05-12T10:35:52.809Z,29.86
2018-05-12T10:36:53.345Z,29.97
2018-05-12T10:37:52.951Z,30.00
2018-05-12T10:38:53.023Z,29.81
2018-05-12T10:39:53.261Z,29.57
2018-05-12T10:40:53.169Z,29.50
2018-05-12T10:41:53.253Z,29.24
2018-05-12T10:42:53.389Z,28.96
2018-05-12T10:43:53.598Z,28.78
2018-05-12T10:44:53.635Z,28.85
2018-05-12T10:45:53.549Z,28.66
2018-05-12T10:46:53.618Z,28.82
2018-05-12T10:47:53.686Z,28.84
2018-05-12T10:48:53.762Z,28.86
2018-05-12T10:49:53.826Z,28.59
2018-05-12T10:50:53.914Z,28.70
2018-05-12T10:51:53.978Z,28.66
2018-05-12T10:52:54.073Z,28.63
2018-05-12T10:53:54.122Z,28.47
2018-05-12T10:54:54.195Z,28.44
2018-05-12T10:55:54.322Z,28.45
2018-05-12T10:56:54.420Z,28.51
2018-05-12T10:57:54.419Z,28.37
2018-05-12T10:58:54.535Z,28.57
2018-05-12T10:59:54.567Z,28.67
2018-05-12T11:00:54.630Z,28.75
2018-05-12T11:01:54.830Z,28.66
2018-05-12T11:02:54.790Z,28.75
2018-05-12T11:03:54.898Z,28.74
2018-05-12T11:04:54.933Z,28.82
2018-05-12T11:05:55.039Z,29.02
2018-05-12T11:06:55.179Z,29.24
2018-05-12T11:07:55.143Z,28.94
2018-05-12T11:08:55.371Z,29.07
2018-05-12T11:09:55.315Z,28.98
2018-05-12T11:10:55.367Z,28.57
2018-05-12T11:11:55.548Z,28.57
2018-05-12T11:12:55.539Z,28.59
2018-05-12T11:13:55.607Z,28.42
2018-05-12T11:14:55.679Z,28.32
2018-05-12T11:15:55.983Z,28.15
2018-05-12T11:16:55.859Z,28.20
2018-05-12T11:17:55.907Z,28.02
2018-05-12T11:18:55.963Z,28.08
2018-05-12T11:19:56.020Z,28.05
2018-05-12T11:20:56.129Z,28.14
2018-05-12T11:21:56.321Z,28.22
2018-05-12T11:22:56.252Z,28.25
2018-05-12T11:23:56.307Z,28.00
2018-05-12T11:24:56.384Z,28.14
2018-05-12T11:25:56.460Z,28.04
2018-05-12T11:26:56.548Z,28.10
2018-05-12T11:27:56.622Z,28.27
2018-05-12T11:28:56.671Z,28.47
2018-05-12T11:29:56.768Z,28.67
2018-05-12T11:30:56.825Z,28.72
2018-05-12T11:31:56.892Z,28.64
2018-05-12T11:32:56.967Z,28.70
2018-05-12T11:33:57.036Z,28.66
2018-05-12T11:34:57.113Z,28.82
2018-05-12T11:35:57.179Z,28.79
2018-05-12T11:36:57.267Z,28.81
2018-05-12T11:37:57.389Z,28.98
2018-05-12T11:38:57.400Z,28.84
2018-05-12T11:39:57.472Z,28.81
2018-05-12T11:40:57.540Z,28.82
2018-05-12T11:41:57.684Z,28.96
2018-05-12T11:42:57.700Z,29.14
2018-05-12T11:43:58.032Z,29.01
2018-05-12T11:44:57.936Z,29.07
2018-05-12T11:45:58.104Z,28.96
2018-05-12T11:46:58.016Z,28.70
2018-05-12T11:47:58.060Z,28.70
2018-05-12T11:48:58.124Z,28.78
2018-05-12T11:49:58.192Z,28.74
2018-05-12T11:50:58.269Z,28.78
2018-05-12T11:51:58.361Z,28.86
2018-05-12T11:52:58.516Z,28.78
2018-05-12T11:53:58.525Z,29.01
2018-05-12T11:54:58.560Z,29.16
2018-05-12T11:55:58.629Z,29.14
2018-05-12T11:56:58.704Z,29.13
2018-05-12T11:57:58.790Z,29.02
2018-05-12T11:58:58.865Z,29.07
2018-05-12T11:59:58.921Z,29.05
2018-05-12T12:00:58.995Z,29.14
2018-05-12T12:01:59.065Z,29.12
2018-05-12T12:02:59.187Z,29.23
2018-05-12T12:03:59.209Z,28.97
2018-05-12T12:04:59.329Z,28.82
2018-05-12T12:05:59.355Z,28.69
2018-05-12T12:06:59.425Z,28.67
2018-05-12T12:07:59.506Z,28.64
2018-05-12T12:08:59.578Z,28.67
2018-05-12T12:09:59.645Z,28.69
2018-05-12T12:10:59.789Z,28.69
2018-05-12T12:11:59.790Z,28.66
2018-05-12T12:12:59.869Z,28.51
2018-05-12T12:13:59.941Z,28.70
2018-05-12T12:15:00.010Z,28.85
2018-05-12T12:16:00.078Z,28.94
2018-05-12T12:17:00.153Z,29.12
2018-05-12T12:18:00.245Z,29.14
2018-05-12T12:19:00.298Z,29.02
2018-05-12T12:20:00.412Z,28.93
2018-05-12T12:21:00.442Z,28.81
2018-05-12T12:22:00.670Z,28.69
2018-05-12T12:23:00.626Z,28.86
2018-05-12T12:24:00.666Z,28.81
2018-05-12T12:25:00.729Z,28.93
2018-05-12T12:26:00.826Z,29.07
2018-05-12T12:27:00.874Z,29.17
2018-05-12T12:28:00.954Z,28.85
2018-05-12T12:29:01.086Z,28.51
2018-05-12T12:30:01.091Z,28.52
2018-05-12T12:31:01.162Z,28.63
2018-05-12T12:32:01.278Z,28.66
2018-05-12T12:33:01.307Z,28.64
2018-05-12T12:34:01.578Z,28.82
2018-05-12T12:35:01.460Z,28.94
2018-05-12T12:36:01.527Z,29.07
2018-05-12T12:37:01.600Z,29.10
2018-05-12T12:38:01.671Z,29.05
2018-05-12T12:39:01.751Z,28.98
2018-05-12T12:40:01.823Z,29.02
2018-05-12T12:41:01.887Z,28.79
2018-05-12T12:42:01.959Z,28.86
2018-05-12T12:43:02.032Z,28.81
2018-05-12T12:44:02.215Z,28.78
2018-05-12T12:45:02.178Z,28.85
2018-05-12T12:46:02.247Z,28.89
2018-05-12T12:47:02.319Z,28.86
2018-05-12T12:48:02.391Z,28.94
2018-05-12T12:49:02.515Z,29.12
2018-05-12T12:50:02.554Z,29.24
2018-05-12T12:51:02.611Z,29.34
2018-05-12T12:52:02.683Z,29.38
2018-05-12T12:53:02.751Z,29.53